createdAt,value
2023-02-04T00:00:29.212Z,1.30
2023-02-04T00:02:57.082Z,0.90
2023-02-04T00:05:26.415Z,1.13
2023-02-04T00:07:54.054Z,1.67
2023-02-04T00:10:22.123Z,1.57
2023-02-04T00:12:49.914Z,1.07
2023-02-04T00:15:17.933Z,1.00
2023-02-04T00:17:45.659Z,2.77
2023-02-04T00:20:14.083Z,0.93
2023-02-04T00:22:43.195Z,1.50
2023-02-04T00:25:11.063Z,1.50
2023-02-04T00:27:38.911Z,1.07
2023-02-04T00:30:08.353Z,1.00
2023-02-04T00:32:36.047Z,1.40
2023-02-04T00:35:04.870Z,1.20
2023-02-04T00:37:32.766Z,1.97
2023-02-04T00:40:02.049Z,0.97
2023-02-04T00:42:30.820Z,1.40
2023-02-04T00:44:59.344Z,1.30
2023-02-04T00:47:27.674Z,0.80
2023-02-04T00:49:57.215Z,1.17
2023-02-04T00:52:25.204Z,1.83
2023-02-04T00:54:52.797Z,3.13
2023-02-04T00:57:21.923Z,1.33
2023-02-04T00:59:49.605Z,1.57
2023-02-04T01:02:18.717Z,1.90
2023-02-04T01:04:46.540Z,2.27
2023-02-04T01:07:14.761Z,1.80
2023-02-04T01:09:42.451Z,2.23
2023-02-04T01:12:10.150Z,1.80
2023-02-04T01:14:39.066Z,2.47
2023-02-04T01:17:07.108Z,1.33
2023-02-04T01:19:34.943Z,1.93
2023-02-04T01:22:05.527Z,2.10
2023-02-04T01:24:33.158Z,1.83
2023-02-04T01:27:20.217Z,1.77
2023-02-04T01:29:49.155Z,2.27
2023-02-04T01:32:17.988Z,2.47
2023-02-04T01:34:45.660Z,2.20
2023-02-04T01:37:13.729Z,2.57
2023-02-04T01:39:42.551Z,2.27
2023-02-04T01:42:10.808Z,1.73
2023-02-04T01:44:39.400Z,1.83
2023-02-04T01:47:08.930Z,3.40
2023-02-04T01:49:36.534Z,2.17
2023-02-04T01:52:05.579Z,2.20
2023-02-04T01:54:33.508Z,1.70
2023-02-04T01:57:02.008Z,2.10
2023-02-04T01:59:29.752Z,2.30
2023-02-04T02:02:01.478Z,2.30
2023-02-04T02:04:33.858Z,1.20
2023-02-04T02:07:06.930Z,1.70
2023-02-04T02:09:35.473Z,2.07
2023-02-04T02:12:04.693Z,1.70
2023-02-04T02:14:32.709Z,2.03
2023-02-04T02:17:01.377Z,2.47
2023-02-04T02:19:34.591Z,1.57
2023-02-04T02:22:06.960Z,1.13
2023-02-04T02:24:37.761Z,1.53
2023-02-04T02:27:08.323Z,1.20
2023-02-04T02:29:36.454Z,1.37
2023-02-04T02:32:06.215Z,1.30
2023-02-04T02:34:35.320Z,1.13
2023-02-04T02:37:05.271Z,0.80
2023-02-04T02:39:33.278Z,0.80
2023-02-04T02:42:03.126Z,0.60
2023-02-04T02:44:31.392Z,0.60
2023-02-04T02:47:00.091Z,0.83
2023-02-04T02:49:35.205Z,0.83
2023-02-04T02:52:02.941Z,0.67
2023-02-04T02:54:32.964Z,0.40
2023-02-04T02:57:06.703Z,0.70
2023-02-04T02:59:34.644Z,0.50
2023-02-04T03:02:05.259Z,0.50
2023-02-04T03:04:40.440Z,2.30
2023-02-04T03:07:11.370Z,1.00
2023-02-04T03:09:40.109Z,1.57
2023-02-04T03:12:09.923Z,1.33
2023-02-04T03:14:39.315Z,2.90
2023-02-04T03:17:08.304Z,2.63
2023-02-04T03:19:37.609Z,1.53
2023-02-04T03:22:06.526Z,1.60
2023-02-04T03:24:34.992Z,3.70
2023-02-04T03:27:04.470Z,1.20
2023-02-04T03:29:33.772Z,2.60
2023-02-04T03:32:01.404Z,2.37
2023-02-04T03:34:29.600Z,1.70
2023-02-04T03:36:57.225Z,1.83
2023-02-04T03:39:25.504Z,2.97
2023-02-04T03:41:53.108Z,2.33
2023-02-04T03:44:22.021Z,1.83
2023-02-04T03:46:55.245Z,2.20
2023-02-04T03:49:23.578Z,2.47
2023-02-04T03:51:51.397Z,2.00
2023-02-04T03:54:19.623Z,2.43
2023-02-04T03:56:47.213Z,4.60
2023-02-04T03:59:15.071Z,2.33
2023-02-04T04:01:42.843Z,2.13
2023-02-04T04:04:11.903Z,2.83
2023-02-04T04:06:39.481Z,2.37
2023-02-04T04:09:07.533Z,4.07
2023-02-04T04:11:35.148Z,1.80
2023-02-04T04:14:04.271Z,3.33
2023-02-04T04:16:31.858Z,1.93
2023-02-04T04:19:00.047Z,1.27
2023-02-04T04:21:29.554Z,3.10
2023-02-04T04:23:57.477Z,3.40
2023-02-04T04:26:25.192Z,3.30
2023-02-04T04:28:52.878Z,3.60
2023-02-04T04:31:20.549Z,3.83
2023-02-04T04:33:48.230Z,2.97
2023-02-04T04:36:15.854Z,2.03
2023-02-04T04:38:45.530Z,4.20
2023-02-04T04:41:13.102Z,2.67
2023-02-04T04:43:41.141Z,3.60
2023-02-04T04:46:09.079Z,2.00
2023-02-04T04:48:36.681Z,3.40
2023-02-04T04:51:05.102Z,2.23
2023-02-04T04:53:32.761Z,2.27
2023-02-04T04:56:02.376Z,1.67
2023-02-04T04:58:29.946Z,2.30
2023-02-04T05:00:57.790Z,3.70
2023-02-04T05:03:25.541Z,3.47
2023-02-04T05:05:53.762Z,4.70
2023-02-04T05:08:21.377Z,2.80
2023-02-04T05:10:50.190Z,2.90
2023-02-04T05:13:19.112Z,2.53
2023-02-04T05:15:47.356Z,1.80
2023-02-04T05:18:14.953Z,1.93
2023-02-04T05:20:42.566Z,1.67
2023-02-04T05:23:10.158Z,1.90
2023-02-04T05:25:38.529Z,3.70
2023-02-04T05:28:06.419Z,2.93
2023-02-04T05:30:35.780Z,2.50
2023-02-04T05:33:03.385Z,1.87
2023-02-04T05:35:31.628Z,2.40
2023-02-04T05:37:59.210Z,2.77
2023-02-04T05:40:27.180Z,3.90
2023-02-04T05:42:54.748Z,4.30
2023-02-04T05:45:23.103Z,2.43
2023-02-04T05:47:52.114Z,2.67
2023-02-04T05:50:20.509Z,2.60
2023-02-04T05:52:48.176Z,2.90
2023-02-04T05:55:16.107Z,2.50
2023-02-04T05:57:43.702Z,4.07
2023-02-04T06:00:13.249Z,2.63
2023-02-04T06:02:41.250Z,2.00
2023-02-04T06:05:10.671Z,1.87
2023-02-04T06:07:38.307Z,2.63
2023-02-04T06:10:06.470Z,2.67
2023-02-04T06:12:34.133Z,2.67
2023-02-04T06:15:02.828Z,3.07
2023-02-04T06:17:30.460Z,3.13
2023-02-04T06:19:58.443Z,2.00
2023-02-04T06:22:27.675Z,2.20
2023-02-04T06:24:55.384Z,3.77
2023-02-04T06:27:24.957Z,2.93
2023-02-04T06:29:53.206Z,2.83
2023-02-04T06:32:22.218Z,1.90
2023-02-04T06:34:50.337Z,2.30
2023-02-04T06:37:18.708Z,2.40
2023-02-04T06:39:47.624Z,2.70
2023-02-04T06:42:16.241Z,2.07
2023-02-04T06:44:43.811Z,2.20
2023-02-04T06:47:11.595Z,2.47
2023-02-04T06:49:39.204Z,2.23
2023-02-04T06:52:07.201Z,2.00
2023-02-04T06:54:34.871Z,1.73
2023-02-04T06:57:07.142Z,1.77
2023-02-04T06:59:35.056Z,1.93
2023-02-04T07:02:04.224Z,2.87
2023-02-04T07:04:31.972Z,2.77
2023-02-04T07:07:00.265Z,1.30
2023-02-04T07:09:27.974Z,2.23
2023-02-04T07:11:56.499Z,3.23
2023-02-04T07:14:25.420Z,3.73
2023-02-04T07:16:53.795Z,2.83
2023-02-04T07:19:21.414Z,1.83
2023-02-04T07:21:54.193Z,2.77
2023-02-04T07:24:21.845Z,3.53
2023-02-04T07:26:50.456Z,2.20
2023-02-04T07:29:25.111Z,2.00
2023-02-04T07:31:55.253Z,1.57
2023-02-04T07:34:23.352Z,1.80
2023-02-04T07:36:51.603Z,2.57
2023-02-04T07:39:19.344Z,1.97
2023-02-04T07:41:46.997Z,3.17
2023-02-04T07:44:21.420Z,2.20
2023-02-04T07:46:49.469Z,2.23
2023-02-04T07:49:18.439Z,1.90
2023-02-04T07:51:46.676Z,1.80
2023-02-04T07:54:14.399Z,2.00
2023-02-04T07:56:42.027Z,2.70
2023-02-04T07:59:09.688Z,2.40
2023-02-04T08:01:37.748Z,2.00
2023-02-04T08:04:05.939Z,1.63
2023-02-04T08:06:35.509Z,1.30
2023-02-04T08:09:03.096Z,1.97
2023-02-04T08:11:30.726Z,1.13
2023-02-04T08:13:58.312Z,2.07
2023-02-04T08:16:25.980Z,2.97
2023-02-04T08:18:54.266Z,3.50
2023-02-04T08:21:21.851Z,1.60
2023-02-04T08:23:51.322Z,2.20
2023-02-04T08:26:18.971Z,1.80
2023-02-04T08:28:46.956Z,2.80
2023-02-04T08:31:14.605Z,1.20
2023-02-04T08:33:42.757Z,1.53
2023-02-04T08:36:10.466Z,1.87
2023-02-04T08:38:38.059Z,2.50
2023-02-04T08:41:07.198Z,4.17
2023-02-04T08:43:35.429Z,1.50
2023-02-04T08:46:03.037Z,1.30
2023-02-04T08:48:31.431Z,1.37
2023-02-04T08:50:59.096Z,1.87
2023-02-04T08:53:27.648Z,1.23
2023-02-04T08:55:55.293Z,1.53
2023-02-04T08:58:24.461Z,1.83
2023-02-04T09:00:52.120Z,2.30
2023-02-04T09:03:19.795Z,1.27
2023-02-04T09:05:47.566Z,2.73
2023-02-04T09:08:16.101Z,2.60
2023-02-04T09:10:43.682Z,1.37
2023-02-04T09:13:12.373Z,1.73
2023-02-04T09:15:41.432Z,2.27
2023-02-04T09:18:16.327Z,2.77
2023-02-04T09:20:44.263Z,1.57
2023-02-04T09:23:13.271Z,1.23
2023-02-04T09:25:41.705Z,2.07
2023-02-04T09:28:11.883Z,1.70
2023-02-04T09:30:41.957Z,2.60
2023-02-04T09:33:10.908Z,2.73
2023-02-04T09:35:38.928Z,1.30
2023-02-04T09:38:07.136Z,1.70
2023-02-04T09:40:38.623Z,1.63
2023-02-04T09:43:07.349Z,2.13
2023-02-04T09:45:36.984Z,1.60
2023-02-04T09:48:09.567Z,3.33
2023-02-04T09:50:38.369Z,2.23
2023-02-04T09:53:08.638Z,2.07
2023-02-04T09:55:40.296Z,2.27
2023-02-04T09:58:16.372Z,2.80
2023-02-04T10:00:45.201Z,3.20
2023-02-04T10:03:17.848Z,3.97
2023-02-04T10:05:47.091Z,2.07
2023-02-04T10:08:16.856Z,2.50
2023-02-04T10:10:46.342Z,3.70
2023-02-04T10:13:19.305Z,2.73
2023-02-04T10:15:48.721Z,3.30
2023-02-04T10:18:23.831Z,2.10
2023-02-04T10:20:51.770Z,2.97
2023-02-04T10:23:19.354Z,2.33
2023-02-04T10:25:46.903Z,2.00
2023-02-04T10:28:14.505Z,2.83
2023-02-04T10:30:44.233Z,2.63
2023-02-04T10:33:17.002Z,1.40
2023-02-04T10:35:48.421Z,2.83
2023-02-04T10:38:16.028Z,2.27
2023-02-04T10:40:44.337Z,1.90
2023-02-04T10:43:16.302Z,1.53
2023-02-04T10:45:47.493Z,2.97
2023-02-04T10:48:17.441Z,1.73
2023-02-04T10:50:48.329Z,2.43
2023-02-04T10:53:35.955Z,3.13
2023-02-04T10:56:03.643Z,1.80
2023-02-04T10:58:32.524Z,1.87
2023-02-04T11:01:00.414Z,1.87
2023-02-04T11:03:30.752Z,2.00
2023-02-04T11:06:02.106Z,5.37
2023-02-04T11:08:33.632Z,1.20
2023-02-04T11:11:05.647Z,1.93
2023-02-04T11:13:41.777Z,2.23
2023-02-04T11:16:13.884Z,1.53
2023-02-04T11:18:47.472Z,2.57
2023-02-04T11:21:24.165Z,1.30
2023-02-04T11:24:03.780Z,2.43
2023-02-04T11:26:38.256Z,3.30
2023-02-04T11:29:27.627Z,3.33
2023-02-04T11:32:01.937Z,2.80
2023-02-04T11:34:46.782Z,1.80
2023-02-04T11:37:35.177Z,1.57
2023-02-04T11:40:21.476Z,1.43
2023-02-04T11:42:49.533Z,2.50
2023-02-04T11:45:30.130Z,1.23
2023-02-04T11:48:00.453Z,0.83
2023-02-04T11:50:30.958Z,1.57
2023-02-04T11:53:02.846Z,1.10
2023-02-04T11:55:33.146Z,0.97
2023-02-04T11:58:01.227Z,1.40
2023-02-04T12:00:32.178Z,0.80
2023-02-04T12:03:02.050Z,0.83
2023-02-04T12:05:44.486Z,0.97
2023-02-04T12:08:25.411Z,1.37
2023-02-04T12:11:03.115Z,0.90
2023-02-04T12:13:32.027Z,1.20
2023-02-04T12:16:01.866Z,1.33
2023-02-04T12:18:30.452Z,1.27
2023-02-04T12:20:59.469Z,1.53
2023-02-04T12:23:30.388Z,0.80
2023-02-04T12:25:58.549Z,0.70
2023-02-04T12:28:27.894Z,1.00
2023-02-04T12:30:56.000Z,1.03
2023-02-04T12:33:23.951Z,1.60
2023-02-04T12:35:52.230Z,0.80
2023-02-04T12:38:20.710Z,1.30
2023-02-04T12:40:50.000Z,1.40
2023-02-04T12:43:17.580Z,0.70
2023-02-04T12:45:46.850Z,1.03
2023-02-04T12:48:15.046Z,0.83
2023-02-04T12:50:43.068Z,1.00
2023-02-04T12:53:11.041Z,0.93
2023-02-04T12:55:38.703Z,1.73
2023-02-04T12:58:08.116Z,1.90
2023-02-04T13:00:35.736Z,1.07
2023-02-04T13:03:04.137Z,0.93
2023-02-04T13:05:32.306Z,0.43
2023-02-04T13:08:00.698Z,1.67
2023-02-04T13:10:28.392Z,1.83
2023-02-04T13:12:56.256Z,1.53
2023-02-04T13:15:25.182Z,0.57
2023-02-04T13:17:53.181Z,0.40
2023-02-04T13:20:20.957Z,0.67
2023-02-04T13:22:48.590Z,0.40
2023-02-04T13:25:16.404Z,1.80
2023-02-04T13:27:44.510Z,0.60
2023-02-04T13:30:14.601Z,0.70
2023-02-04T13:32:43.845Z,0.60
2023-02-04T13:35:11.543Z,0.60
2023-02-04T13:37:39.552Z,0.83
2023-02-04T13:40:09.406Z,1.33
2023-02-04T13:42:37.336Z,0.37
2023-02-04T13:45:07.632Z,0.50
2023-02-04T13:47:35.216Z,0.70
2023-02-04T13:50:04.383Z,0.20
2023-02-04T13:52:33.208Z,0.30
2023-02-04T13:55:00.900Z,0.40
2023-02-04T13:57:30.500Z,0.87
2023-02-04T13:59:58.070Z,0.80
2023-02-04T14:02:26.492Z,0.73
2023-02-04T14:04:54.142Z,0.20
2023-02-04T14:07:23.281Z,0.67
2023-02-04T14:09:50.899Z,0.50
2023-02-04T14:12:19.024Z,0.33
2023-02-04T14:14:46.600Z,1.13
2023-02-04T14:17:14.368Z,0.60
2023-02-04T14:19:41.949Z,1.30
2023-02-04T14:22:12.974Z,0.23
2023-02-04T14:24:42.708Z,0.50
2023-02-04T14:27:11.869Z,0.60
2023-02-04T14:29:39.744Z,0.40
2023-02-04T14:32:08.372Z,1.33
2023-02-04T14:34:36.156Z,1.07
2023-02-04T14:37:03.737Z,0.23
2023-02-04T14:39:31.629Z,0.30
2023-02-04T14:42:00.724Z,0.30
2023-02-04T14:44:29.255Z,0.40
2023-02-04T14:46:56.859Z,0.30
2023-02-04T14:49:25.315Z,0.77
2023-02-04T14:51:53.083Z,0.10
2023-02-04T14:54:20.793Z,0.60
2023-02-04T14:56:50.373Z,0.80
2023-02-04T14:59:20.262Z,0.30
2023-02-04T15:01:47.821Z,0.83
2023-02-04T15:04:15.842Z,0.20
2023-02-04T15:06:43.465Z,1.33
2023-02-04T15:09:11.413Z,0.30
2023-02-04T15:11:39.265Z,0.33
2023-02-04T15:14:07.216Z,0.70
2023-02-04T15:16:36.259Z,0.30
2023-02-04T15:19:04.109Z,0.60
2023-02-04T15:21:31.698Z,2.43
2023-02-04T15:23:59.862Z,0.60
2023-02-04T15:26:28.056Z,0.40
2023-02-04T15:28:56.228Z,0.87
2023-02-04T15:31:24.137Z,0.73
2023-02-04T15:33:53.982Z,0.70
2023-02-04T15:36:21.585Z,0.30
2023-02-04T15:38:49.552Z,0.77
2023-02-04T15:41:17.264Z,0.30
2023-02-04T15:43:45.691Z,0.20
2023-02-04T15:46:13.301Z,1.13
2023-02-04T15:48:41.654Z,0.73
2023-02-04T15:51:10.604Z,0.87
2023-02-04T15:53:40.560Z,0.30
2023-02-04T15:56:08.241Z,0.20
2023-02-04T15:58:37.071Z,0.67
2023-02-04T16:01:04.850Z,0.33
2023-02-04T16:03:33.088Z,0.30
2023-02-04T16:06:00.708Z,0.20
2023-02-04T16:08:30.282Z,0.20
2023-02-04T16:10:57.854Z,0.30
2023-02-04T16:13:25.962Z,0.30
2023-02-04T16:15:53.599Z,0.47
2023-02-04T16:18:23.913Z,1.47
2023-02-04T16:20:51.488Z,0.50
2023-02-04T16:23:20.157Z,1.63
2023-02-04T16:25:49.108Z,1.00
2023-02-04T16:28:17.008Z,2.80
2023-02-04T16:30:45.082Z,4.33
2023-02-04T16:33:12.681Z,3.43
2023-02-04T16:36:00.180Z,3.10
2023-02-04T16:38:28.239Z,4.03
2023-02-04T16:40:58.135Z,5.13
2023-02-04T16:43:25.936Z,7.87
2023-02-04T16:45:54.474Z,5.30
2023-02-04T16:48:22.036Z,5.37
2023-02-04T16:50:50.100Z,4.00
2023-02-04T16:53:17.743Z,6.23
2023-02-04T16:55:48.551Z,6.10
2023-02-04T16:58:18.668Z,4.77
2023-02-04T17:00:46.621Z,6.07
2023-02-04T17:03:14.890Z,6.77
2023-02-04T17:05:43.896Z,8.57
2023-02-04T17:08:13.556Z,10.43
2023-02-04T17:10:59.786Z,11.90
2023-02-04T17:13:29.026Z,11.40
2023-02-04T17:16:00.643Z,7.17
2023-02-04T17:18:29.724Z,5.60
2023-02-04T17:20:57.998Z,5.03
2023-02-04T17:23:26.776Z,3.67
2023-02-04T17:25:55.046Z,3.73
2023-02-04T17:28:24.147Z,2.03
2023-02-04T17:30:53.551Z,2.80
2023-02-04T17:33:21.170Z,2.80
2023-02-04T17:35:49.101Z,2.20
2023-02-04T17:38:16.726Z,1.80
2023-02-04T17:40:45.013Z,1.07
2023-02-04T17:43:12.580Z,1.33
2023-02-04T17:45:40.811Z,1.03
2023-02-04T17:48:09.900Z,0.63
2023-02-04T17:50:40.256Z,0.57
2023-02-04T17:53:08.551Z,1.60
2023-02-04T17:55:39.306Z,0.53
2023-02-04T17:58:14.298Z,1.73
2023-02-04T18:00:43.968Z,1.77
2023-02-04T18:03:15.022Z,2.20
2023-02-04T18:05:46.686Z,2.70
2023-02-04T18:08:16.844Z,2.53
2023-02-04T18:10:46.880Z,2.57
2023-02-04T18:13:17.189Z,2.67
2023-02-04T18:15:47.255Z,3.20
2023-02-04T18:18:21.319Z,3.17
2023-02-04T18:20:56.951Z,1.70
2023-02-04T18:23:24.555Z,1.77
2023-02-04T18:25:53.208Z,1.57
2023-02-04T18:28:22.127Z,1.77
2023-02-04T18:30:54.203Z,2.30
2023-02-04T18:33:25.922Z,1.20
2023-02-04T18:35:59.460Z,0.90
2023-02-04T18:38:29.009Z,0.90
2023-02-04T18:41:10.502Z,0.83
2023-02-04T18:43:38.807Z,0.80
2023-02-04T18:46:24.967Z,1.03
2023-02-04T18:49:07.346Z,1.20
2023-02-04T18:51:40.167Z,0.77
2023-02-04T18:54:35.885Z,2.73
2023-02-04T18:57:28.699Z,3.27
2023-02-04T19:00:26.204Z,4.00
2023-02-04T19:02:56.604Z,3.87
2023-02-04T19:05:30.570Z,5.97
2023-02-04T19:08:23.022Z,4.60
2023-02-04T19:10:52.125Z,4.83
2023-02-04T19:13:22.694Z,5.97
2023-02-04T19:15:58.749Z,4.33
2023-02-04T19:18:28.723Z,6.77
2023-02-04T19:21:09.228Z,12.80
2023-02-04T19:23:38.893Z,11.73
2023-02-04T19:26:26.171Z,13.53
2023-02-04T19:28:54.919Z,13.27
2023-02-04T19:31:23.622Z,11.67
2023-02-04T19:33:53.350Z,9.40
2023-02-04T19:36:35.373Z,6.43
2023-02-04T19:39:06.007Z,7.60
2023-02-04T19:41:42.545Z,4.87
2023-02-04T19:44:39.203Z,4.53
2023-02-04T19:47:24.598Z,4.47
2023-02-04T19:49:56.130Z,3.97
2023-02-04T19:52:36.408Z,3.83
2023-02-04T19:55:37.989Z,6.53
2023-02-04T19:58:16.709Z,7.90
2023-02-04T20:00:46.905Z,6.73
2023-02-04T20:03:39.483Z,6.40
2023-02-04T20:06:30.122Z,5.13
2023-02-04T20:09:05.259Z,4.77
2023-02-04T20:11:42.436Z,4.10
2023-02-04T20:14:50.429Z,2.23
2023-02-04T20:17:37.309Z,1.43
2023-02-04T20:20:21.268Z,2.20
2023-02-04T20:22:51.928Z,1.90
2023-02-04T20:25:42.943Z,1.73
2023-02-04T20:28:23.425Z,1.43
2023-02-04T20:30:52.665Z,1.77
2023-02-04T20:33:28.375Z,2.40
2023-02-04T20:36:25.668Z,0.77
2023-02-04T20:38:59.710Z,0.60
2023-02-04T20:41:31.095Z,1.00
2023-02-04T20:43:59.949Z,0.83
2023-02-04T20:46:27.692Z,0.93
2023-02-04T20:48:55.916Z,1.77
2023-02-04T20:51:26.549Z,2.63
2023-02-04T20:53:55.458Z,3.73
2023-02-04T20:56:26.307Z,6.23
2023-02-04T20:58:58.149Z,5.30
2023-02-04T21:01:33.807Z,4.07
2023-02-04T21:04:16.081Z,4.10
2023-02-04T21:06:43.888Z,4.23
2023-02-04T21:09:22.279Z,3.97
2023-02-04T21:11:50.152Z,1.60
2023-02-04T21:14:19.674Z,0.97
2023-02-04T21:16:48.041Z,1.10
2023-02-04T21:19:16.845Z,1.13
2023-02-04T21:21:44.581Z,0.90
2023-02-04T21:24:12.383Z,1.10
2023-02-04T21:26:40.385Z,2.93
2023-02-04T21:29:08.420Z,1.20
2023-02-04T21:31:37.483Z,1.07
2023-02-04T21:34:06.485Z,0.87
2023-02-04T21:36:34.450Z,1.70
2023-02-04T21:39:03.564Z,1.00
2023-02-04T21:41:31.202Z,0.80
2023-02-04T21:43:59.202Z,1.07
2023-02-04T21:46:26.869Z,1.50
2023-02-04T21:48:56.120Z,1.47
2023-02-04T21:51:24.011Z,1.00
2023-02-04T21:53:51.837Z,1.53
2023-02-04T21:56:19.451Z,0.80
2023-02-04T21:58:47.704Z,1.50
2023-02-04T22:01:15.369Z,1.77
2023-02-04T22:03:43.698Z,2.97
2023-02-04T22:06:12.642Z,3.53
2023-02-04T22:08:40.715Z,3.20
2023-02-04T22:11:08.308Z,3.17
2023-02-04T22:13:54.257Z,2.57
2023-02-04T22:16:21.859Z,2.00
2023-02-04T22:18:49.430Z,1.93
2023-02-04T22:21:18.333Z,2.87
2023-02-04T22:23:46.272Z,3.43
2023-02-04T22:26:13.840Z,7.87
2023-02-04T22:28:42.075Z,6.77
2023-02-04T22:31:09.724Z,7.57
2023-02-04T22:33:38.106Z,5.20
2023-02-04T22:36:06.041Z,6.90
2023-02-04T22:38:34.974Z,6.03
2023-02-04T22:41:02.550Z,7.30
2023-02-04T22:43:30.107Z,6.73
2023-02-04T22:45:58.260Z,6.20
2023-02-04T22:48:25.828Z,3.80
2023-02-04T22:50:55.082Z,4.63
2023-02-04T22:53:22.656Z,3.50
2023-02-04T22:55:52.293Z,3.13
2023-02-04T22:58:19.882Z,3.67
2023-02-04T23:00:48.383Z,4.47
2023-02-04T23:03:15.995Z,5.07
2023-02-04T23:05:45.288Z,5.53
2023-02-04T23:08:13.103Z,6.00
2023-02-04T23:10:41.240Z,5.87
2023-02-04T23:13:10.636Z,4.30
2023-02-04T23:15:38.391Z,3.73
2023-02-04T23:18:06.461Z,3.83
2023-02-04T23:20:35.105Z,2.70
2023-02-04T23:23:03.030Z,2.60
2023-02-04T23:25:31.110Z,3.37
2023-02-04T23:27:58.796Z,3.30
2023-02-04T23:30:27.980Z,4.37
2023-02-04T23:32:55.559Z,3.73
2023-02-04T23:35:23.487Z,4.63
2023-02-04T23:37:51.072Z,3.47
2023-02-04T23:40:19.247Z,4.23
2023-02-04T23:42:46.845Z,3.23
2023-02-04T23:45:15.192Z,2.53
2023-02-04T23:47:44.144Z,2.07
2023-02-04T23:50:12.124Z,2.83
2023-02-04T23:52:40.018Z,2.53
2023-02-04T23:55:08.364Z,2.30
2023-02-04T23:57:36.442Z,1.80
